sensor_id;sensor_type;location;lat;lon;timestamp;P1;durP1;ratioP1;P2;durP2;ratioP2
22673;SDS011;11504;43.334;21.918;2023-05-29T00:00:58;11.0;;;10.0;;
22673;SDS011;11504;43.334;21.918;2023-05-29T00:05:35;11.0;;;10.0;;
22673;SDS011;11504;43.334;21.918;2023-05-29T00:10:12;10.0;;;10.0;;
22673;SDS011;11504;43.334;21.918;2023-05-29T00:14:49;10.0;;;10.0;;
22673;SDS011;11504;43.334;21.918;2023-05-29T00:19:26;10.0;;;9.0;;
22673;SDS011;11504;43.334;21.918;2023-05-29T00:24:03;10.0;;;9.0;;
22673;SDS011;11504;43.334;21.918;2023-05-29T00:28:41;11.0;;;10.0;;
22673;SDS011;11504;43.334;21.918;2023-05-29T00:33:18;11.0;;;10.0;;
22673;SDS011;11504;43.334;21.918;2023-05-29T00:37:55;12.0;;;11.0;;
22673;SDS011;11504;43.334;21.918;2023-05-29T00:42:34;12.0;;;11.0;;
22673;SDS011;11504;43.334;21.918;2023-05-29T00:47:10;11.0;;;10.0;;
22673;SDS011;11504;43.334;21.918;2023-05-29T00:51:49;11.0;;;10.0;;
22673;SDS011;11504;43.334;21.918;2023-05-29T00:56:32;10.0;;;9.0;;
22673;SDS011;11504;43.334;21.918;2023-05-29T01:01:10;10.0;;;9.0;;
22673;SDS011;11504;43.334;21.918;2023-05-29T01:05:48;12.0;;;10.0;;
22673;SDS011;11504;43.334;21.918;2023-05-29T01:10:25;12.0;;;10.0;;
22673;SDS011;11504;43.334;21.918;2023-05-29T01:15:08;12.0;;;10.0;;
22673;SDS011;11504;43.334;21.918;2023-05-29T01:20:23;13.0;;;12.0;;
22673;SDS011;11504;43.334;21.918;2023-05-29T01:25:24;13.0;;;12.0;;
22673;SDS011;11504;43.334;21.918;2023-05-29T01:30:48;12.0;;;12.0;;
22673;SDS011;11504;43.334;21.918;2023-05-29T01:35:29;12.0;;;12.0;;
22673;SDS011;11504;43.334;21.918;2023-05-29T01:40:08;11.0;;;11.0;;
22673;SDS011;11504;43.334;21.918;2023-05-29T01:44:47;11.0;;;11.0;;
22673;SDS011;11504;43.334;21.918;2023-05-29T01:49:26;11.0;;;11.0;;
22673;SDS011;11504;43.334;21.918;2023-05-29T01:54:07;11.0;;;11.0;;
22673;SDS011;11504;43.334;21.918;2023-05-29T01:58:46;11.0;;;11.0;;
22673;SDS011;11504;43.334;21.918;2023-05-29T02:03:27;11.0;;;11.0;;
22673;SDS011;11504;43.334;21.918;2023-05-29T02:08:04;10.0;;;10.0;;
22673;SDS011;11504;43.334;21.918;2023-05-29T02:12:40;10.0;;;10.0;;
22673;SDS011;11504;43.334;21.918;2023-05-29T02:17:17;10.0;;;10.0;;
22673;SDS011;11504;43.334;21.918;2023-05-29T02:21:53;10.0;;;10.0;;
22673;SDS011;11504;43.334;21.918;2023-05-29T02:26:31;10.0;;;10.0;;
22673;SDS011;11504;43.334;21.918;2023-05-29T02:31:09;10.0;;;10.0;;
22673;SDS011;11504;43.334;21.918;2023-05-29T02:35:46;11.0;;;11.0;;
22673;SDS011;11504;43.334;21.918;2023-05-29T02:40:23;11.0;;;11.0;;
22673;SDS011;11504;43.334;21.918;2023-05-29T02:45:00;11.0;;;11.0;;
22673;SDS011;11504;43.334;21.918;2023-05-29T02:49:39;10.0;;;10.0;;
22673;SDS011;11504;43.334;21.918;2023-05-29T02:54:15;10.0;;;10.0;;
22673;SDS011;11504;43.334;21.918;2023-05-29T02:58:52;10.0;;;10.0;;
22673;SDS011;11504;43.334;21.918;2023-05-29T03:03:29;10.0;;;10.0;;
22673;SDS011;11504;43.334;21.918;2023-05-29T03:08:06;10.0;;;10.0;;
22673;SDS011;11504;43.334;21.918;2023-05-29T03:12:43;10.0;;;10.0;;
22673;SDS011;11504;43.334;21.918;2023-05-29T03:17:22;11.0;;;10.0;;
22673;SDS011;11504;43.334;21.918;2023-05-29T03:21:59;11.0;;;10.0;;
22673;SDS011;11504;43.334;21.918;2023-05-29T03:26:35;11.0;;;10.0;;
22673;SDS011;11504;43.334;21.918;2023-05-29T03:31:12;11.0;;;10.0;;
22673;SDS011;11504;43.334;21.918;2023-05-29T03:35:49;11.0;;;11.0;;
22673;SDS011;11504;43.334;21.918;2023-05-29T03:40:25;11.0;;;11.0;;
22673;SDS011;11504;43.334;21.918;2023-05-29T03:45:02;11.0;;;11.0;;
22673;SDS011;11504;43.334;21.918;2023-05-29T03:49:42;12.0;;;12.0;;
22673;SDS011;11504;43.334;21.918;2023-05-29T03:54:18;12.0;;;12.0;;
22673;SDS011;11504;43.334;21.918;2023-05-29T03:58:54;12.0;;;12.0;;
22673;SDS011;11504;43.334;21.918;2023-05-29T04:03:31;12.0;;;12.0;;
22673;SDS011;11504;43.334;21.918;2023-05-29T04:08:07;12.0;;;12.0;;
22673;SDS011;11504;43.334;21.918;2023-05-29T04:12:43;12.0;;;12.0;;
22673;SDS011;11504;43.334;21.918;2023-05-29T04:17:19;11.0;;;11.0;;
22673;SDS011;11504;43.334;21.918;2023-05-29T04:21:56;11.0;;;11.0;;
22673;SDS011;11504;43.334;21.918;2023-05-29T04:26:32;10.0;;;10.0;;
22673;SDS011;11504;43.334;21.918;2023-05-29T04:31:09;10.0;;;10.0;;
22673;SDS011;11504;43.334;21.918;2023-05-29T04:35:45;10.0;;;10.0;;
22673;SDS011;11504;43.334;21.918;2023-05-29T04:40:22;10.0;;;9.0;;
22673;SDS011;11504;43.334;21.918;2023-05-29T04:44:59;10.0;;;9.0;;
22673;SDS011;11504;43.334;21.918;2023-05-29T04:49:35;9.0;;;8.0;;
22673;SDS011;11504;43.334;21.918;2023-05-29T04:54:11;9.0;;;8.0;;
22673;SDS011;11504;43.334;21.918;2023-05-29T04:58:48;8.0;;;8.0;;
22673;SDS011;11504;43.334;21.918;2023-05-29T05:03:25;8.0;;;8.0;;
22673;SDS011;11504;43.334;21.918;2023-05-29T05:08:01;8.0;;;8.0;;
22673;SDS011;11504;43.334;21.918;2023-05-29T05:12:39;8.0;;;8.0;;
22673;SDS011;11504;43.334;21.918;2023-05-29T05:17:15;7.0;;;7.0;;
22673;SDS011;11504;43.334;21.918;2023-05-29T05:21:52;7.0;;;7.0;;
22673;SDS011;11504;43.334;21.918;2023-05-29T05:26:29;8.0;;;8.0;;
22673;SDS011;11504;43.334;21.918;2023-05-29T05:31:05;8.0;;;8.0;;
22673;SDS011;11504;43.334;21.918;2023-05-29T05:35:42;8.0;;;8.0;;
22673;SDS011;11504;43.334;21.918;2023-05-29T05:40:19;8.0;;;8.0;;
22673;SDS011;11504;43.334;21.918;2023-05-29T05:44:55;8.0;;;8.0;;
22673;SDS011;11504;43.334;21.918;2023-05-29T05:49:32;7.0;;;7.0;;
22673;SDS011;11504;43.334;21.918;2023-05-29T05:54:09;7.0;;;7.0;;
22673;SDS011;11504;43.334;21.918;2023-05-29T05:58:46;6.0;;;6.0;;
22673;SDS011;11504;43.334;21.918;2023-05-29T06:03:22;6.0;;;6.0;;
22673;SDS011;11504;43.334;21.918;2023-05-29T06:07:59;7.0;;;7.0;;
22673;SDS011;11504;43.334;21.918;2023-05-29T06:12:36;7.0;;;7.0;;
22673;SDS011;11504;43.334;21.918;2023-05-29T06:17:12;8.0;;;8.0;;
22673;SDS011;11504;43.334;21.918;2023-05-29T06:21:49;8.0;;;8.0;;
22673;SDS011;11504;43.334;21.918;2023-05-29T06:26:25;8.0;;;8.0;;
22673;SDS011;11504;43.334;21.918;2023-05-29T06:31:02;8.0;;;8.0;;
22673;SDS011;11504;43.334;21.918;2023-05-29T06:35:39;8.0;;;8.0;;
22673;SDS011;11504;43.334;21.918;2023-05-29T06:40:15;9.0;;;9.0;;
22673;SDS011;11504;43.334;21.918;2023-05-29T06:44:51;9.0;;;9.0;;
22673;SDS011;11504;43.334;21.918;2023-05-29T06:49:27;10.0;;;10.0;;
22673;SDS011;11504;43.334;21.918;2023-05-29T06:54:04;10.0;;;10.0;;
22673;SDS011;11504;43.334;21.918;2023-05-29T06:58:40;11.0;;;10.0;;
22673;SDS011;11504;43.334;21.918;2023-05-29T07:03:16;11.0;;;10.0;;
22673;SDS011;11504;43.334;21.918;2023-05-29T07:07:52;10.0;;;10.0;;
22673;SDS011;11504;43.334;21.918;2023-05-29T07:12:29;10.0;;;10.0;;
22673;SDS011;11504;43.334;21.918;2023-05-29T07:17:05;10.0;;;10.0;;
22673;SDS011;11504;43.334;21.918;2023-05-29T07:21:42;10.0;;;10.0;;
22673;SDS011;11504;43.334;21.918;2023-05-29T07:26:18;10.0;;;10.0;;
22673;SDS011;11504;43.334;21.918;2023-05-29T07:30:55;10.0;;;10.0;;
22673;SDS011;11504;43.334;21.918;2023-05-29T07:35:31;10.0;;;10.0;;
22673;SDS011;11504;43.334;21.918;2023-05-29T07:40:08;10.0;;;9.0;;
22673;SDS011;11504;43.334;21.918;2023-05-29T07:44:46;10.0;;;9.0;;
22673;SDS011;11504;43.334;21.918;2023-05-29T07:49:22;10.0;;;9.0;;
22673;SDS011;11504;43.334;21.918;2023-05-29T07:53:59;10.0;;;9.0;;
22673;SDS011;11504;43.334;21.918;2023-05-29T08:07:46;8.0;;;8.0;;
22673;SDS011;11504;43.334;21.918;2023-05-29T08:12:22;8.0;;;8.0;;
22673;SDS011;11504;43.334;21.918;2023-05-29T08:16:59;8.0;;;8.0;;
22673;SDS011;11504;43.334;21.918;2023-05-29T08:21:35;8.0;;;8.0;;
22673;SDS011;11504;43.334;21.918;2023-05-29T08:26:12;8.0;;;8.0;;
22673;SDS011;11504;43.334;21.918;2023-05-29T08:30:48;8.0;;;8.0;;
22673;SDS011;11504;43.334;21.918;2023-05-29T08:35:25;8.0;;;8.0;;
22673;SDS011;11504;43.334;21.918;2023-05-29T08:40:01;8.0;;;7.0;;
22673;SDS011;11504;43.334;21.918;2023-05-29T08:44:40;8.0;;;7.0;;
22673;SDS011;11504;43.334;21.918;2023-05-29T08:49:23;7.0;;;6.0;;
22673;SDS011;11504;43.334;21.918;2023-05-29T08:54:07;7.0;;;6.0;;
22673;SDS011;11504;43.334;21.918;2023-05-29T08:58:46;6.0;;;6.0;;
22673;SDS011;11504;43.334;21.918;2023-05-29T09:03:24;6.0;;;6.0;;
22673;SDS011;11504;43.334;21.918;2023-05-29T09:08:01;6.0;;;6.0;;
22673;SDS011;11504;43.334;21.918;2023-05-29T09:12:37;6.0;;;6.0;;
22673;SDS011;11504;43.334;21.918;2023-05-29T09:17:14;7.0;;;6.0;;
22673;SDS011;11504;43.334;21.918;2023-05-29T09:21:50;7.0;;;6.0;;
22673;SDS011;11504;43.334;21.918;2023-05-29T09:26:27;7.0;;;6.0;;
22673;SDS011;11504;43.334;21.918;2023-05-29T09:31:14;7.0;;;6.0;;
22673;SDS011;11504;43.334;21.918;2023-05-29T09:35:52;7.0;;;6.0;;
22673;SDS011;11504;43.334;21.918;2023-05-29T09:40:30;7.0;;;6.0;;
22673;SDS011;11504;43.334;21.918;2023-05-29T09:45:17;7.0;;;6.0;;
22673;SDS011;11504;43.334;21.918;2023-05-29T09:49:57;7.0;;;6.0;;
22673;SDS011;11504;43.334;21.918;2023-05-29T09:54:36;7.0;;;6.0;;
22673;SDS011;11504;43.334;21.918;2023-05-29T10:08:41;7.0;;;6.0;;
22673;SDS011;11504;43.334;21.918;2023-05-29T10:13:33;7.0;;;6.0;;
22673;SDS011;11504;43.334;21.918;2023-05-29T10:18:34;7.0;;;6.0;;
22673;SDS011;11504;43.334;21.918;2023-05-29T10:23:16;7.0;;;6.0;;
22673;SDS011;11504;43.334;21.918;2023-05-29T10:28:00;8.0;;;6.0;;
22673;SDS011;11504;43.334;21.918;2023-05-29T10:33:22;8.0;;;6.0;;
22673;SDS011;11504;43.334;21.918;2023-05-29T10:38:19;8.0;;;7.0;;
22673;SDS011;11504;43.334;21.918;2023-05-29T10:42:57;8.0;;;7.0;;
22673;SDS011;11504;43.334;21.918;2023-05-29T10:47:33;8.0;;;7.0;;
22673;SDS011;11504;43.334;21.918;2023-05-29T10:52:11;8.0;;;7.0;;
22673;SDS011;11504;43.334;21.918;2023-05-29T10:56:58;8.0;;;7.0;;
22673;SDS011;11504;43.334;21.918;2023-05-29T11:01:39;8.0;;;7.0;;
22673;SDS011;11504;43.334;21.918;2023-05-29T11:06:21;8.0;;;7.0;;
22673;SDS011;11504;43.334;21.918;2023-05-29T11:10:59;8.0;;;6.0;;
22673;SDS011;11504;43.334;21.918;2023-05-29T11:15:37;8.0;;;6.0;;
22673;SDS011;11504;43.334;21.918;2023-05-29T11:20:37;8.0;;;6.0;;
22673;SDS011;11504;43.334;21.918;2023-05-29T11:25:21;8.0;;;6.0;;
22673;SDS011;11504;43.334;21.918;2023-05-29T11:29:58;8.0;;;6.0;;
22673;SDS011;11504;43.334;21.918;2023-05-29T11:34:41;8.0;;;6.0;;
22673;SDS011;11504;43.334;21.918;2023-05-29T11:39:18;8.0;;;6.0;;
22673;SDS011;11504;43.334;21.918;2023-05-29T11:43:59;8.0;;;6.0;;
22673;SDS011;11504;43.334;21.918;2023-05-29T11:48:46;8.0;;;6.0;;
22673;SDS011;11504;43.334;21.918;2023-05-29T11:53:25;8.0;;;6.0;;
22673;SDS011;11504;43.334;21.918;2023-05-29T11:58:04;7.0;;;7.0;;
22673;SDS011;11504;43.334;21.918;2023-05-29T12:02:42;7.0;;;7.0;;
22673;SDS011;11504;43.334;21.918;2023-05-29T12:07:20;6.0;;;6.0;;
22673;SDS011;11504;43.334;21.918;2023-05-29T12:12:04;6.0;;;6.0;;
22673;SDS011;11504;43.334;21.918;2023-05-29T12:16:42;6.0;;;6.0;;
22673;SDS011;11504;43.334;21.918;2023-05-29T12:21:23;5.0;;;5.0;;
22673;SDS011;11504;43.334;21.918;2023-05-29T12:26:00;5.0;;;5.0;;
22673;SDS011;11504;43.334;21.918;2023-05-29T12:30:38;6.0;;;6.0;;
22673;SDS011;11504;43.334;21.918;2023-05-29T12:35:22;6.0;;;6.0;;
22673;SDS011;11504;43.334;21.918;2023-05-29T12:40:22;7.0;;;6.0;;
22673;SDS011;11504;43.334;21.918;2023-05-29T12:45:02;7.0;;;6.0;;
22673;SDS011;11504;43.334;21.918;2023-05-29T12:49:39;7.0;;;6.0;;
22673;SDS011;11504;43.334;21.918;2023-05-29T12:54:17;7.0;;;6.0;;
22673;SDS011;11504;43.334;21.918;2023-05-29T12:58:54;7.0;;;6.0;;
22673;SDS011;11504;43.334;21.918;2023-05-29T13:03:30;7.0;;;6.0;;
22673;SDS011;11504;43.334;21.918;2023-05-29T13:08:07;6.0;;;6.0;;
22673;SDS011;11504;43.334;21.918;2023-05-29T13:12:45;6.0;;;6.0;;
22673;SDS011;11504;43.334;21.918;2023-05-29T13:17:23;6.0;;;6.0;;
22673;SDS011;11504;43.334;21.918;2023-05-29T13:21:59;6.0;;;6.0;;
22673;SDS011;11504;43.334;21.918;2023-05-29T13:26:36;6.0;;;6.0;;
22673;SDS011;11504;43.334;21.918;2023-05-29T13:31:12;6.0;;;6.0;;
22673;SDS011;11504;43.334;21.918;2023-05-29T13:35:49;6.0;;;6.0;;
22673;SDS011;11504;43.334;21.918;2023-05-29T13:40:26;6.0;;;5.0;;
22673;SDS011;11504;43.334;21.918;2023-05-29T13:45:08;6.0;;;5.0;;
22673;SDS011;11504;43.334;21.918;2023-05-29T13:49:46;6.0;;;5.0;;
22673;SDS011;11504;43.334;21.918;2023-05-29T13:54:22;6.0;;;5.0;;
22673;SDS011;11504;43.334;21.918;2023-05-29T14:08:11;8.0;;;8.0;;
22673;SDS011;11504;43.334;21.918;2023-05-29T14:12:47;8.0;;;8.0;;
22673;SDS011;11504;43.334;21.918;2023-05-29T14:17:24;8.0;;;8.0;;
22673;SDS011;11504;43.334;21.918;2023-05-29T14:22:01;8.0;;;8.0;;
22673;SDS011;11504;43.334;21.918;2023-05-29T14:26:37;8.0;;;8.0;;
22673;SDS011;11504;43.334;21.918;2023-05-29T14:31:14;8.0;;;8.0;;
22673;SDS011;11504;43.334;21.918;2023-05-29T14:35:51;8.0;;;8.0;;
22673;SDS011;11504;43.334;21.918;2023-05-29T14:40:27;7.0;;;7.0;;
22673;SDS011;11504;43.334;21.918;2023-05-29T14:45:07;7.0;;;7.0;;
22673;SDS011;11504;43.334;21.918;2023-05-29T14:49:44;7.0;;;7.0;;
22673;SDS011;11504;43.334;21.918;2023-05-29T14:54:20;7.0;;;7.0;;
22673;SDS011;11504;43.334;21.918;2023-05-29T14:58:56;7.0;;;7.0;;
22673;SDS011;11504;43.334;21.918;2023-05-29T15:03:32;7.0;;;7.0;;
22673;SDS011;11504;43.334;21.918;2023-05-29T15:08:08;7.0;;;7.0;;
22673;SDS011;11504;43.334;21.918;2023-05-29T15:12:44;7.0;;;7.0;;
22673;SDS011;11504;43.334;21.918;2023-05-29T15:31:09;7.0;;;6.0;;
22673;SDS011;11504;43.334;21.918;2023-05-29T15:35:45;7.0;;;6.0;;
22673;SDS011;11504;43.334;21.918;2023-05-29T15:40:21;7.0;;;6.0;;
22673;SDS011;11504;43.334;21.918;2023-05-29T15:44:58;7.0;;;6.0;;
22673;SDS011;11504;43.334;21.918;2023-05-29T15:49:35;7.0;;;6.0;;
22673;SDS011;11504;43.334;21.918;2023-05-29T15:54:11;7.0;;;6.0;;
22673;SDS011;11504;43.334;21.918;2023-05-29T16:08:01;6.0;;;6.0;;
22673;SDS011;11504;43.334;21.918;2023-05-29T16:12:38;6.0;;;6.0;;
22673;SDS011;11504;43.334;21.918;2023-05-29T16:17:15;6.0;;;6.0;;
22673;SDS011;11504;43.334;21.918;2023-05-29T16:21:52;6.0;;;6.0;;
22673;SDS011;11504;43.334;21.918;2023-05-29T16:26:30;6.0;;;6.0;;
22673;SDS011;11504;43.334;21.918;2023-05-29T16:31:07;7.0;;;6.0;;
22673;SDS011;11504;43.334;21.918;2023-05-29T16:35:43;7.0;;;6.0;;
22673;SDS011;11504;43.334;21.918;2023-05-29T16:40:20;8.0;;;7.0;;
22673;SDS011;11504;43.334;21.918;2023-05-29T16:44:56;8.0;;;7.0;;
22673;SDS011;11504;43.334;21.918;2023-05-29T16:49:33;8.0;;;7.0;;
22673;SDS011;11504;43.334;21.918;2023-05-29T16:54:09;8.0;;;7.0;;
22673;SDS011;11504;43.334;21.918;2023-05-29T16:58:45;7.0;;;7.0;;
22673;SDS011;11504;43.334;21.918;2023-05-29T17:03:21;7.0;;;7.0;;
22673;SDS011;11504;43.334;21.918;2023-05-29T17:07:58;8.0;;;8.0;;
22673;SDS011;11504;43.334;21.918;2023-05-29T17:12:34;8.0;;;8.0;;
22673;SDS011;11504;43.334;21.918;2023-05-29T17:17:10;8.0;;;8.0;;
22673;SDS011;11504;43.334;21.918;2023-05-29T17:21:47;9.0;;;8.0;;
22673;SDS011;11504;43.334;21.918;2023-05-29T17:26:23;9.0;;;8.0;;
22673;SDS011;11504;43.334;21.918;2023-05-29T17:31:00;8.0;;;8.0;;
22673;SDS011;11504;43.334;21.918;2023-05-29T17:35:36;8.0;;;8.0;;
22673;SDS011;11504;43.334;21.918;2023-05-29T17:40:12;8.0;;;8.0;;
22673;SDS011;11504;43.334;21.918;2023-05-29T17:44:48;8.0;;;8.0;;
22673;SDS011;11504;43.334;21.918;2023-05-29T17:49:25;10.0;;;10.0;;
22673;SDS011;11504;43.334;21.918;2023-05-29T17:54:01;10.0;;;10.0;;
22673;SDS011;11504;43.334;21.918;2023-05-29T17:58:37;13.0;;;12.0;;
22673;SDS011;11504;43.334;21.918;2023-05-29T18:03:14;13.0;;;12.0;;
22673;SDS011;11504;43.334;21.918;2023-05-29T18:07:50;10.0;;;10.0;;
22673;SDS011;11504;43.334;21.918;2023-05-29T18:12:27;10.0;;;10.0;;
22673;SDS011;11504;43.334;21.918;2023-05-29T18:17:04;10.0;;;10.0;;
22673;SDS011;11504;43.334;21.918;2023-05-29T18:21:41;8.0;;;8.0;;
22673;SDS011;11504;43.334;21.918;2023-05-29T18:26:18;8.0;;;8.0;;
22673;SDS011;11504;43.334;21.918;2023-05-29T18:30:54;8.0;;;8.0;;
22673;SDS011;11504;43.334;21.918;2023-05-29T18:35:31;8.0;;;8.0;;
22673;SDS011;11504;43.334;21.918;2023-05-29T18:40:11;7.0;;;7.0;;
22673;SDS011;11504;43.334;21.918;2023-05-29T18:44:49;7.0;;;7.0;;
22673;SDS011;11504;43.334;21.918;2023-05-29T18:49:25;7.0;;;6.0;;
22673;SDS011;11504;43.334;21.918;2023-05-29T18:54:03;7.0;;;6.0;;
22673;SDS011;11504;43.334;21.918;2023-05-29T18:58:40;7.0;;;6.0;;
22673;SDS011;11504;43.334;21.918;2023-05-29T19:03:17;7.0;;;6.0;;
22673;SDS011;11504;43.334;21.918;2023-05-29T19:07:54;8.0;;;7.0;;
22673;SDS011;11504;43.334;21.918;2023-05-29T19:12:31;8.0;;;7.0;;
22673;SDS011;11504;43.334;21.918;2023-05-29T19:17:08;8.0;;;7.0;;
22673;SDS011;11504;43.334;21.918;2023-05-29T19:21:44;8.0;;;8.0;;
22673;SDS011;11504;43.334;21.918;2023-05-29T19:26:22;8.0;;;8.0;;
22673;SDS011;11504;43.334;21.918;2023-05-29T19:30:59;10.0;;;9.0;;
22673;SDS011;11504;43.334;21.918;2023-05-29T19:35:36;10.0;;;9.0;;
22673;SDS011;11504;43.334;21.918;2023-05-29T19:40:13;11.0;;;10.0;;
22673;SDS011;11504;43.334;21.918;2023-05-29T19:44:50;11.0;;;10.0;;
22673;SDS011;11504;43.334;21.918;2023-05-29T19:49:26;10.0;;;10.0;;
22673;SDS011;11504;43.334;21.918;2023-05-29T19:54:03;10.0;;;10.0;;
22673;SDS011;11504;43.334;21.918;2023-05-29T19:58:39;10.0;;;9.0;;
22673;SDS011;11504;43.334;21.918;2023-05-29T20:03:16;10.0;;;9.0;;
22673;SDS011;11504;43.334;21.918;2023-05-29T20:07:53;10.0;;;9.0;;
22673;SDS011;11504;43.334;21.918;2023-05-29T20:12:29;10.0;;;9.0;;
22673;SDS011;11504;43.334;21.918;2023-05-29T20:17:06;10.0;;;9.0;;
22673;SDS011;11504;43.334;21.918;2023-05-29T20:21:42;9.0;;;9.0;;
22673;SDS011;11504;43.334;21.918;2023-05-29T20:26:19;9.0;;;9.0;;
22673;SDS011;11504;43.334;21.918;2023-05-29T20:30:55;10.0;;;10.0;;
22673;SDS011;11504;43.334;21.918;2023-05-29T20:35:32;10.0;;;10.0;;
22673;SDS011;11504;43.334;21.918;2023-05-29T20:40:10;10.0;;;10.0;;
22673;SDS011;11504;43.334;21.918;2023-05-29T20:44:46;10.0;;;10.0;;
22673;SDS011;11504;43.334;21.918;2023-05-29T20:49:24;10.0;;;10.0;;
22673;SDS011;11504;43.334;21.918;2023-05-29T20:54:00;10.0;;;10.0;;
22673;SDS011;11504;43.334;21.918;2023-05-29T20:58:36;10.0;;;9.0;;
22673;SDS011;11504;43.334;21.918;2023-05-29T21:03:13;10.0;;;9.0;;
22673;SDS011;11504;43.334;21.918;2023-05-29T21:07:51;10.0;;;9.0;;
22673;SDS011;11504;43.334;21.918;2023-05-29T21:12:28;10.0;;;9.0;;
22673;SDS011;11504;43.334;21.918;2023-05-29T21:17:06;10.0;;;9.0;;
22673;SDS011;11504;43.334;21.918;2023-05-29T21:21:42;10.0;;;9.0;;
22673;SDS011;11504;43.334;21.918;2023-05-29T21:26:19;10.0;;;9.0;;
22673;SDS011;11504;43.334;21.918;2023-05-29T21:30:56;9.0;;;8.0;;
22673;SDS011;11504;43.334;21.918;2023-05-29T21:35:33;9.0;;;8.0;;
22673;SDS011;11504;43.334;21.918;2023-05-29T21:40:11;8.0;;;7.0;;
22673;SDS011;11504;43.334;21.918;2023-05-29T21:44:48;8.0;;;7.0;;
22673;SDS011;11504;43.334;21.918;2023-05-29T21:49:25;9.0;;;8.0;;
22673;SDS011;11504;43.334;21.918;2023-05-29T21:54:03;9.0;;;8.0;;
22673;SDS011;11504;43.334;21.918;2023-05-29T21:58:42;10.0;;;9.0;;
22673;SDS011;11504;43.334;21.918;2023-05-29T22:03:19;10.0;;;9.0;;
22673;SDS011;11504;43.334;21.918;2023-05-29T22:07:56;10.0;;;8.0;;
22673;SDS011;11504;43.334;21.918;2023-05-29T22:12:33;10.0;;;8.0;;
22673;SDS011;11504;43.334;21.918;2023-05-29T22:17:09;10.0;;;8.0;;
22673;SDS011;11504;43.334;21.918;2023-05-29T22:21:46;9.0;;;7.0;;
22673;SDS011;11504;43.334;21.918;2023-05-29T22:26:22;9.0;;;7.0;;
22673;SDS011;11504;43.334;21.918;2023-05-29T22:30:59;8.0;;;8.0;;
22673;SDS011;11504;43.334;21.918;2023-05-29T22:35:35;8.0;;;8.0;;
22673;SDS011;11504;43.334;21.918;2023-05-29T22:40:12;8.0;;;8.0;;
22673;SDS011;11504;43.334;21.918;2023-05-29T22:44:49;8.0;;;8.0;;
22673;SDS011;11504;43.334;21.918;2023-05-29T22:49:25;8.0;;;8.0;;
22673;SDS011;11504;43.334;21.918;2023-05-29T22:54:02;8.0;;;8.0;;
22673;SDS011;11504;43.334;21.918;2023-05-29T22:58:38;8.0;;;8.0;;
22673;SDS011;11504;43.334;21.918;2023-05-29T23:03:15;8.0;;;8.0;;
22673;SDS011;11504;43.334;21.918;2023-05-29T23:07:51;8.0;;;8.0;;
22673;SDS011;11504;43.334;21.918;2023-05-29T23:12:28;8.0;;;8.0;;
22673;SDS011;11504;43.334;21.918;2023-05-29T23:17:04;8.0;;;8.0;;
22673;SDS011;11504;43.334;21.918;2023-05-29T23:21:41;8.0;;;8.0;;
22673;SDS011;11504;43.334;21.918;2023-05-29T23:26:17;8.0;;;8.0;;
22673;SDS011;11504;43.334;21.918;2023-05-29T23:30:54;8.0;;;8.0;;
22673;SDS011;11504;43.334;21.918;2023-05-29T23:35:30;8.0;;;8.0;;
22673;SDS011;11504;43.334;21.918;2023-05-29T23:40:10;7.0;;;7.0;;
22673;SDS011;11504;43.334;21.918;2023-05-29T23:44:48;7.0;;;7.0;;
22673;SDS011;11504;43.334;21.918;2023-05-29T23:49:24;8.0;;;8.0;;
22673;SDS011;11504;43.334;21.918;2023-05-29T23:54:01;8.0;;;8.0;;
22673;SDS011;11504;43.334;21.918;2023-05-29T23:58:38;9.0;;;9.0;;
